KCNO/CNO METAR and TAF weather

Enter ICAO airport designator
Station Type Date Time Source
KCNO METAR 2020/09/19 18:53 UTC NOAA

KCNO 191853Z 18004KT 7SM FU CLR 36/07 A2987 RMK AO2 SLP108 T03560067


Station Type Date Time Source
KCNO Decoded METAR 2020/09/19 18:53 UTC NOAA

CHINO AIRPORT, CA, United States (KCNO) 33-58N 117-38W 207M
Sep 19, 2020 - 02:53 PM EDT / 2020.09.19 1853 UTC
Wind: from the S (180 degrees) at 5 MPH (4 KT):0
Visibility: 7 mile(s):0
Sky conditions: clear
Weather: smoke
Temperature: 96.1 F (35.6 C)
Dew Point: 44.1 F (6.7 C)
Relative Humidity: 16%
Pressure (altimeter): 29.87 in. Hg (1011 hPa)
ob: KCNO 191853Z 18004KT 7SM FU CLR 36/07 A2987 RMK AO2 SLP108 T03560067
cycle: 19

Station Type Date Time Source
KCNO TAF UTC NOAA

Error!

Example: see airport list